Time;durP1;ratioP1;P1;durP2;ratioP2;P2;SDS_P1;SDS_P2;PMS_P1;PMS_P2;Temp;Humidity;BMP_temperature;BMP_pressure;BME280_temperature;BME280_humidity;BME280_pressure;Samples;Min_cycle;Max_cycle;Signal;HPM_P1;HPM_P2
2023/07/23 00:02:26;;;;;;;3.00;2.88;;;17.90;99.90;;;18.20;90.72;100707.22;5048160;28;20048;-73
2023/07/23 00:04:55;;;;;;;3.20;3.10;;;17.90;99.90;;;18.14;91.18;100697.63;5052046;28;20045;-74
2023/07/23 00:07:23;;;;;;;3.05;2.95;;;17.80;99.90;;;18.13;91.29;100713.75;5052116;28;20075;-74
2023/07/23 00:09:51;;;;;;;3.33;3.20;;;17.90;99.90;;;18.11;91.38;100703.13;5052288;28;20049;-74
2023/07/23 00:12:20;;;;;;;3.22;3.13;;;17.80;99.90;;;18.17;90.74;100699.34;5052295;28;20409;-74
2023/07/23 00:14:49;;;;;;;2.90;2.80;;;17.90;99.90;;;18.19;90.58;100693.00;5052003;28;20045;-74
2023/07/23 00:17:18;;;;;;;3.43;3.33;;;17.90;99.90;;;18.28;90.06;100686.41;5051890;28;20053;-74
2023/07/23 00:19:47;;;;;;;3.22;3.13;;;17.90;99.90;;;18.32;89.88;100688.91;5052181;28;20329;-73
2023/07/23 00:22:15;;;;;;;3.20;3.10;;;18.00;99.90;;;18.39;89.81;100693.06;5055374;28;20049;-74
2023/07/23 00:24:43;;;;;;;3.53;3.35;;;18.00;99.90;;;18.43;89.91;100686.69;5054660;28;20037;-75
2023/07/23 00:27:13;;;;;;;7.85;4.40;;;18.10;99.90;;;18.35;89.97;100714.72;5051941;28;20059;-74
2023/07/23 00:29:42;;;;;;;4.15;3.78;;;18.10;99.90;;;18.20;89.57;100657.25;5055569;28;20520;-73
2023/07/23 00:32:13;;;;;;;3.55;3.40;;;18.00;99.90;;;18.16;89.72;100639.56;5054519;28;20064;-73
2023/07/23 00:34:41;;;;;;;3.10;3.00;;;18.00;99.90;;;18.42;89.49;100673.34;5054393;28;20862;-74
2023/07/23 00:37:10;;;;;;;2.95;2.85;;;18.10;99.90;;;18.40;89.70;100664.50;5055492;28;20295;-74
2023/07/23 00:39:40;;;;;;;2.85;2.75;;;18.10;99.90;;;18.37;89.99;100672.66;5055618;28;20081;-74
2023/07/23 00:42:09;;;;;;;17.02;6.15;;;18.10;99.90;;;18.39;90.08;100666.28;5054348;28;20148;-74
2023/07/23 00:44:37;;;;;;;2.95;2.85;;;18.10;99.90;;;18.40;90.12;100667.19;5070928;28;20068;-73
2023/07/23 00:47:07;;;;;;;2.90;2.80;;;18.10;99.90;;;18.42;90.29;100652.84;5050870;28;20368;-74
2023/07/23 00:49:37;;;;;;;3.53;3.35;;;18.10;99.90;;;18.39;90.61;100652.06;5051936;28;20095;-74
2023/07/23 00:52:07;;;;;;;3.05;2.95;;;18.10;99.90;;;18.33;91.11;100652.28;5055398;28;20052;-74
2023/07/23 00:54:36;;;;;;;3.58;3.42;;;18.00;99.90;;;18.38;91.11;100650.28;5052406;28;20049;-75
2023/07/23 00:57:07;;;;;;;2.90;2.80;;;18.10;99.90;;;17.76;91.09;100532.31;5070730;28;20497;-74
2023/07/23 00:59:36;;;;;;;3.40;3.22;;;18.10;99.90;;;18.40;91.28;100637.72;5053705;28;20495;-75
2023/07/23 01:02:05;;;;;;;3.28;3.17;;;18.20;99.90;;;18.37;91.62;100627.13;5055168;28;20056;-75
2023/07/23 01:04:34;;;;;;;2.92;2.83;;;18.10;99.90;;;18.47;91.94;100642.78;5055219;28;20049;-74
2023/07/23 01:07:06;;;;;;;3.30;3.10;;;18.20;99.90;;;18.40;92.17;100627.00;5054785;28;20057;-73
2023/07/23 01:09:36;;;;;;;3.10;2.90;;;18.10;99.90;;;18.45;91.91;100625.03;5053786;28;20536;-74
2023/07/23 01:12:07;;;;;;;3.88;3.67;;;18.20;99.90;;;18.47;91.92;100620.47;5052145;28;20157;-74
2023/07/23 01:14:36;;;;;;;5.15;4.80;;;18.10;99.90;;;18.50;91.74;100617.69;5055389;28;20064;-74
2023/07/23 01:17:05;;;;;;;3.03;2.92;;;18.20;99.90;;;18.53;91.54;100610.41;5054997;28;20072;-74
2023/07/23 01:19:37;;;;;;;2.85;2.75;;;18.20;99.90;;;18.42;91.41;100598.34;5053515;28;20044;-74
2023/07/23 01:22:08;;;;;;;2.88;2.78;;;18.20;99.90;;;18.42;91.05;100583.19;5051039;28;20110;-74
2023/07/23 01:24:36;;;;;;;3.50;3.40;;;18.20;99.90;;;18.56;91.28;100604.91;5053274;28;20041;-74
2023/07/23 01:27:06;;;;;;;2.80;2.70;;;18.30;99.90;;;18.62;90.97;100596.63;5054712;28;20036;-74
2023/07/23 01:29:35;;;;;;;3.00;2.90;;;18.30;99.90;;;18.70;90.74;100580.22;5054834;28;20049;-74
2023/07/23 01:32:03;;;;;;;3.53;3.42;;;18.40;99.90;;;18.75;90.35;100581.78;5051582;28;20038;-74
2023/07/23 01:34:32;;;;;;;3.53;3.42;;;18.40;99.90;;;18.77;90.14;100573.69;5054299;28;20041;-74
2023/07/23 01:37:01;;;;;;;3.03;2.92;;;18.40;99.90;;;18.75;90.36;100575.56;5052840;28;20072;-71
2023/07/23 01:39:32;;;;;;;3.65;3.45;;;18.50;99.90;;;18.76;90.23;100578.16;5053181;28;20045;-72
2023/07/23 01:42:01;;;;;;;3.25;3.15;;;18.50;99.90;;;18.79;90.64;100569.13;5050820;28;20429;-72
2023/07/23 01:44:30;;;;;;;3.15;3.05;;;18.50;99.90;;;18.83;90.40;100570.75;5054146;28;20033;-72
2023/07/23 01:46:58;;;;;;;2.88;2.78;;;18.50;99.90;;;18.76;90.66;100566.56;5050791;28;20065;-72
2023/07/23 01:49:27;;;;;;;3.40;3.30;;;18.50;99.90;;;18.71;90.70;100564.09;5053959;28;20405;-72
2023/07/23 01:51:55;;;;;;;3.15;3.05;;;18.50;99.90;;;18.57;90.82;100526.28;5053035;28;20049;-71
2023/07/23 01:54:24;;;;;;;2.75;2.65;;;18.50;99.90;;;18.81;90.77;100557.38;5054245;28;20056;-73
2023/07/23 01:56:54;;;;;;;3.38;3.17;;;18.50;99.90;;;18.53;91.34;100523.81;5054263;28;20075;-72
2023/07/23 01:59:22;;;;;;;3.05;2.95;;;18.40;99.90;;;18.69;91.00;100555.25;5052758;28;20086;-74
2023/07/23 02:01:51;;;;;;;3.03;2.92;;;18.40;99.90;;;18.63;91.69;100560.00;5052838;28;20060;-74
2023/07/23 02:04:19;;;;;;;2.78;2.67;;;18.30;99.90;;;18.62;91.66;100547.53;5049828;28;20041;-74
2023/07/23 02:06:47;;;;;;;3.10;3.00;;;18.30;99.90;;;18.58;91.88;100541.41;5048782;28;20053;-74
2023/07/23 02:09:16;;;;;;;3.33;3.13;;;18.30;99.90;;;18.57;92.12;100538.81;5052664;28;20130;-74
2023/07/23 02:11:44;;;;;;;2.88;2.78;;;18.30;99.90;;;17.85;92.36;100409.72;5053803;28;20056;-74
2023/07/23 02:14:14;;;;;;;3.38;3.28;;;18.30;99.90;;;18.54;92.27;100525.56;5053780;28;20075;-74
2023/07/23 02:16:42;;;;;;;2.83;2.72;;;18.30;99.90;;;18.44;93.00;100517.03;5051088;28;20112;-74
2023/07/23 02:19:11;;;;;;;2.92;2.83;;;18.20;99.90;;;18.49;92.83;100520.38;5068769;28;20044;-75
2023/07/23 02:21:39;;;;;;;3.10;3.00;;;18.20;99.90;;;18.47;93.25;100506.19;5052383;28;20485;-75
2023/07/23 02:24:08;;;;;;;3.60;3.45;;;18.20;99.90;;;18.18;94.16;100506.50;5053671;28;20060;-74
2023/07/23 02:26:36;;;;;;;4.13;3.83;;;18.00;99.90;;;18.24;95.03;100497.34;5053562;28;20049;-74
2023/07/23 02:29:04;;;;;;;3.05;2.95;;;18.00;99.90;;;17.58;95.08;100377.88;5052272;28;20072;-75
2023/07/23 02:31:34;;;;;;;3.95;3.75;;;18.00;99.90;;;17.94;96.59;100500.34;5048440;28;20052;-74
2023/07/23 02:34:02;;;;;;;4.43;4.13;;;17.90;99.90;;;17.87;97.35;100497.97;5053452;28;20489;-75
2023/07/23 02:36:32;;;;;;;3.47;3.28;;;17.70;99.90;;;17.78;98.19;100483.16;5049690;28;20057;-74
2023/07/23 02:39:01;;;;;;;3.30;3.20;;;17.60;99.90;;;17.81;98.64;100483.03;5068753;28;20122;-74
2023/07/23 02:41:29;;;;;;;3.65;3.55;;;17.60;99.90;;;17.87;98.69;100482.78;5052016;28;20140;-74
2023/07/23 02:43:58;;;;;;;3.25;3.15;;;17.70;99.90;;;17.89;98.89;100470.22;5052510;28;20055;-75
2023/07/23 02:46:26;;;;;;;4.40;4.20;;;17.70;99.90;;;17.79;99.20;100471.53;5053011;28;20069;-74
2023/07/23 02:48:56;;;;;;;3.17;3.08;;;17.60;99.90;;;17.78;99.96;100458.22;5053174;28;20145;-73
2023/07/23 02:51:25;;;;;;;3.00;2.90;;;17.70;99.90;;;17.77;100.00;100459.13;5052974;28;20132;-75
2023/07/23 02:53:53;;;;;;;3.28;3.10;;;17.60;99.90;;;17.60;100.00;100426.84;5049565;28;20107;-74
2023/07/23 02:56:22;;;;;;;3.20;3.10;;;17.60;99.90;;;17.76;100.00;100449.38;5051900;28;20048;-74
2023/07/23 02:58:51;;;;;;;2.83;2.72;;;17.60;99.90;;;17.81;100.00;100452.72;5068333;28;20037;-75
2023/07/23 03:01:19;;;;;;;4.35;4.15;;;17.60;99.90;;;17.89;100.00;100456.84;5051776;28;20524;-75
2023/07/23 03:03:48;;;;;;;3.45;3.33;;;17.70;99.90;;;17.86;100.00;100437.38;5050220;28;20071;-75
2023/07/23 03:06:18;;;;;;;3.13;3.03;;;17.80;99.90;;;17.81;100.00;100444.69;5052960;28;20120;-74
2023/07/23 03:08:54;;;;;;;3.75;3.55;;;17.70;99.90;;;17.81;100.00;100445.56;5051676;28;20554;-75
2023/07/23 03:11:22;;;;;;;2.83;2.72;;;17.60;99.90;;;17.76;100.00;100441.34;5048943;28;20061;-75
2023/07/23 03:13:50;;;;;;;3.55;3.45;;;17.60;99.90;;;17.78;100.00;100434.13;5051639;28;20746;-75
2023/07/23 03:16:19;;;;;;;3.28;3.17;;;17.60;99.90;;;17.73;100.00;100433.47;5052545;28;20045;-75
2023/07/23 03:18:47;;;;;;;3.17;3.08;;;17.60;99.90;;;17.81;100.00;100420.63;5052794;28;20045;-73
2023/07/23 03:21:16;;;;;;;3.63;3.53;;;17.70;99.90;;;17.80;100.00;100417.09;5052801;28;20433;-74
2023/07/23 03:23:46;;;;;;;3.38;3.28;;;17.60;99.90;;;17.90;100.00;100417.59;5051503;28;20063;-74
2023/07/23 03:26:15;;;;;;;3.33;3.23;;;17.70;99.90;;;17.37;100.00;100338.63;5067599;28;20410;-74
2023/07/23 03:28:43;;;;;;;3.40;3.30;;;17.70;99.90;;;17.93;100.00;100412.97;5052456;28;20839;-72
2023/07/23 03:31:11;;;;;;;3.45;3.35;;;17.70;99.90;;;18.01;99.43;100409.97;5051426;28;20057;-74
2023/07/23 03:33:40;;;;;;;3.22;3.13;;;17.80;99.90;;;18.12;98.45;100409.53;5052635;28;20405;-74
2023/07/23 03:36:10;;;;;;;4.07;3.88;;;17.90;99.90;;;18.19;97.09;100413.66;5047573;28;20417;-74
2023/07/23 03:38:39;;;;;;;3.53;3.43;;;18.00;99.90;;;18.30;95.82;100414.94;5052321;28;20532;-74
2023/07/23 03:41:10;;;;;;;3.03;2.92;;;18.10;99.90;;;18.40;95.57;100413.63;5052562;28;20037;-75
2023/07/23 03:43:39;;;;;;;3.00;2.90;;;18.10;99.90;;;18.39;94.67;100408.34;5050139;28;20087;-74
2023/07/23 03:46:09;;;;;;;13.15;5.85;;;18.20;99.90;;;18.48;94.38;100405.28;5052541;28;20037;-75
2023/07/23 03:48:37;;;;;;;3.92;3.63;;;18.20;99.90;;;18.56;93.79;100409.34;5052555;28;20033;-74
2023/07/23 03:51:05;;;;;;;4.40;3.53;;;18.30;99.90;;;18.40;93.04;100381.47;5052223;28;20083;-74
2023/07/23 03:53:34;;;;;;;3.75;3.55;;;18.30;99.90;;;18.60;92.48;100399.38;5051134;28;20080;-75
2023/07/23 03:56:02;;;;;;;3.83;3.53;;;18.30;99.90;;;18.64;92.27;100396.47;5049031;28;20462;-75
2023/07/23 03:58:32;;;;;;;2.80;2.70;;;18.40;99.90;;;18.04;91.71;100292.94;5056384;28;20569;-74
2023/07/23 04:01:00;;;;;;;4.70;4.20;;;18.40;99.90;;;18.64;91.84;100391.13;5056027;28;20041;-74
2023/07/23 04:03:29;;;;;;;3.05;2.95;;;18.40;99.90;;;18.70;91.68;100393.53;5054987;28;20303;-75
2023/07/23 04:05:58;;;;;;;3.50;3.35;;;18.40;99.90;;;18.78;91.58;100399.41;5054969;28;20498;-75
2023/07/23 04:08:26;;;;;;;2.80;2.70;;;18.40;99.90;;;18.83;91.40;100391.19;5055964;28;20099;-74
2023/07/23 04:10:56;;;;;;;3.35;3.22;;;18.50;99.90;;;18.89;91.07;100396.25;5056115;28;20454;-74
2023/07/23 04:13:24;;;;;;;3.47;3.38;;;18.60;99.90;;;18.97;90.91;100383.34;5055803;28;20501;-74
2023/07/23 04:15:54;;;;;;;3.00;2.80;;;18.60;99.90;;;19.01;90.65;100381.41;5056087;28;20048;-74
2023/07/23 04:18:22;;;;;;;3.73;3.27;;;18.60;99.90;;;18.95;90.23;100381.69;5052203;28;20033;-74
2023/07/23 04:20:50;;;;;;;4.03;3.72;;;18.70;99.90;;;18.96;90.27;100376.25;5055587;28;20999;-75
2023/07/23 04:23:19;;;;;;;2.92;2.83;;;18.60;99.90;;;18.93;90.36;100379.94;5055878;28;20095;-75
2023/07/23 04:25:47;;;;;;;3.25;3.05;;;18.60;99.90;;;18.93;90.17;100385.31;5055954;28;20114;-74
2023/07/23 04:28:15;;;;;;;3.10;3.00;;;18.60;99.90;;;19.00;90.36;100382.34;5053090;28;20052;-75
2023/07/23 04:30:44;;;;;;;3.80;3.60;;;18.60;99.90;;;19.00;90.31;100383.22;5071155;28;20506;-75
2023/07/23 04:33:14;;;;;;;5.35;4.40;;;18.70;99.90;;;19.00;90.21;100375.19;5054493;28;20137;-74
2023/07/23 04:35:42;;;;;;;2.80;2.70;;;18.60;99.90;;;18.96;90.15;100375.38;5055447;28;20395;-74
2023/07/23 04:38:11;;;;;;;4.00;3.75;;;18.60;99.90;;;18.90;90.35;100380.09;5054471;28;20064;-75
2023/07/23 04:40:39;;;;;;;2.78;2.67;;;18.50;99.90;;;18.93;90.23;100379.94;5055269;28;20482;-75
2023/07/23 04:43:08;;;;;;;4.13;3.88;;;18.60;99.90;;;18.93;90.35;100379.94;5051655;28;20040;-73
2023/07/23 04:45:36;;;;;;;3.25;3.15;;;18.50;99.90;;;18.97;90.31;100371.78;5055243;28;20120;-75
2023/07/23 04:48:05;;;;;;;3.25;3.15;;;18.60;99.90;;;18.97;90.33;100382.50;5055197;28;20099;-75
2023/07/23 04:50:35;;;;;;;3.42;3.30;;;18.60;99.90;;;19.01;90.29;100376.06;5055328;28;20126;-75
2023/07/23 04:53:03;;;;;;;5.43;3.60;;;18.60;99.90;;;18.91;90.43;100392.53;5055114;28;20116;-75
2023/07/23 04:55:32;;;;;;;3.22;3.13;;;18.60;99.90;;;18.86;90.68;100389.22;5055045;28;20049;-74
2023/07/23 04:58:01;;;;;;;2.80;2.70;;;18.50;99.90;;;18.87;90.84;100382.06;5054923;28;20052;-75
2023/07/23 05:00:30;;;;;;;4.10;3.80;;;18.50;99.90;;;18.85;90.96;100392.81;5054885;28;20562;-73
2023/07/23 05:02:58;;;;;;;3.97;3.72;;;18.50;99.90;;;18.69;91.00;100389.13;5054905;28;20048;-75
2023/07/23 05:05:27;;;;;;;3.45;3.25;;;18.40;99.90;;;18.44;91.80;100359.03;5055198;28;20051;-75
2023/07/23 05:07:56;;;;;;;3.35;3.25;;;18.30;99.90;;;18.58;92.10;100395.91;5049991;28;20449;-74
2023/07/23 05:10:28;;;;;;;3.85;3.65;;;18.30;99.90;;;18.47;92.24;100393.69;5054849;28;20056;-74
2023/07/23 05:12:58;;;;;;;4.80;4.40;;;18.20;99.90;;;18.40;92.47;100380.59;5052255;28;20119;-74
2023/07/23 05:15:27;;;;;;;3.13;3.03;;;18.10;99.90;;;18.43;93.24;100396.56;5070415;28;20137;-75
2023/07/23 05:17:55;;;;;;;3.70;3.50;;;18.00;99.90;;;18.35;93.80;100394.19;5053630;28;20140;-74
2023/07/23 05:20:24;;;;;;;6.45;5.85;;;18.00;99.90;;;18.25;94.20;100395.53;5054562;28;20044;-75
2023/07/23 05:22:54;;;;;;;3.67;3.47;;;17.90;99.90;;;17.90;94.85;100369.41;5054861;28;20048;-74
2023/07/23 05:25:24;;;;;;;3.37;3.27;;;17.80;99.90;;;18.05;95.93;100395.53;5050688;28;20510;-75
2023/07/23 05:27:52;;;;;;;3.87;3.67;;;17.70;99.90;;;17.99;96.66;100387.75;5051079;28;20303;-73
2023/07/23 05:30:21;;;;;;;4.97;4.57;;;17.70;99.90;;;18.01;97.21;100394.78;5054531;28;20295;-74
2023/07/23 05:32:50;;;;;;;3.75;3.53;;;17.60;99.90;;;18.00;97.41;100395.69;5054438;28;20120;-74
2023/07/23 05:35:19;;;;;;;3.85;3.55;;;17.60;99.90;;;18.07;97.25;100376.72;5054300;28;20041;-74
2023/07/23 05:37:47;;;;;;;3.70;3.53;;;17.70;99.90;;;17.96;97.22;100378.03;5054556;28;20060;-73
2023/07/23 05:40:16;;;;;;;8.90;8.18;;;17.60;99.90;;;17.96;97.19;100383.38;5054092;28;20045;-75
2023/07/23 05:42:45;;;;;;;4.80;4.50;;;17.60;99.90;;;18.01;97.11;100380.53;5054208;28;20083;-74
2023/07/23 05:45:14;;;;;;;3.43;3.23;;;17.60;99.90;;;18.00;97.13;100382.31;5054419;28;20049;-74
2023/07/23 05:47:42;;;;;;;4.75;4.45;;;17.70;99.90;;;18.03;97.16;100375.97;5050121;28;20283;-74
2023/07/23 05:50:11;;;;;;;3.45;3.35;;;17.70;99.90;;;17.97;97.28;100386.94;5050683;28;20053;-73
2023/07/23 05:52:39;;;;;;;4.15;3.95;;;17.70;99.90;;;17.96;97.01;100374.50;5054211;28;20071;-74
2023/07/23 05:55:08;;;;;;;4.75;4.45;;;17.60;99.90;;;17.91;96.96;100379.16;5050863;28;20532;-74
2023/07/23 05:57:37;;;;;;;3.38;3.25;;;17.60;99.90;;;17.82;97.13;100367.06;5069476;28;20071;-74
2023/07/23 06:00:08;;;;;;;3.15;2.92;;;17.50;99.90;;;17.88;97.17;100371.28;5053838;28;20052;-74
2023/07/23 06:02:40;;;;;;;3.10;3.00;;;17.50;99.90;;;17.86;97.40;100376.69;5054107;28;20140;-75
2023/07/23 06:05:09;;;;;;;3.80;3.60;;;17.50;99.90;;;17.95;97.37;100380.78;5054399;28;20044;-75
2023/07/23 06:07:37;;;;;;;3.40;3.30;;;17.60;99.90;;;17.92;97.35;100373.75;5050312;28;20041;-74
2023/07/23 06:10:07;;;;;;;3.60;3.40;;;17.60;99.90;;;17.92;97.32;100378.25;5053894;28;20102;-75
2023/07/23 06:12:35;;;;;;;4.85;4.57;;;17.60;99.90;;;17.86;97.42;100352.63;5053934;28;20490;-74
2023/07/23 06:15:09;;;;;;;3.10;3.00;;;17.60;99.90;;;18.09;97.12;100386.44;5053789;28;20052;-75
2023/07/23 06:17:37;;;;;;;3.83;3.63;;;17.70;99.90;;;18.07;96.56;100374.91;5053542;28;20045;-74
2023/07/23 06:20:08;;;;;;;3.70;3.50;;;17.70;99.90;;;18.15;96.78;100371.91;5053137;28;20536;-74
2023/07/23 06:22:36;;;;;;;3.53;3.42;;;17.80;99.90;;;17.96;96.89;100385.22;5053736;28;20482;-75
2023/07/23 06:25:05;;;;;;;4.35;4.07;;;17.70;99.90;;;18.02;96.89;100368.91;5053612;28;20040;-74
2023/07/23 06:27:34;;;;;;;3.60;3.40;;;17.70;99.90;;;18.06;96.90;100365.13;5049908;28;20478;-74
2023/07/23 06:30:02;;;;;;;3.92;3.58;;;17.70;99.90;;;17.91;96.04;100361.31;5053305;28;20405;-74
2023/07/23 06:32:32;;;;;;;3.55;3.35;;;17.60;99.90;;;17.93;96.22;100372.81;5053233;28;20406;-73
2023/07/23 06:35:00;;;;;;;4.93;4.63;;;17.60;99.90;;;17.84;96.05;100350.94;5052205;28;20080;-74
2023/07/23 06:37:33;;;;;;;3.85;3.65;;;17.60;99.90;;;17.97;95.80;100361.06;5053463;28;20059;-74
2023/07/23 06:40:01;;;;;;;3.40;3.20;;;17.70;99.90;;;17.98;95.63;100367.28;5053138;28;20667;-73
2023/07/23 06:42:29;;;;;;;10.88;4.22;;;17.60;99.90;;;18.05;95.85;100344.66;5053258;28;20044;-74
2023/07/23 06:44:58;;;;;;;3.85;3.65;;;17.70;99.90;;;18.06;95.62;100356.25;5052968;28;20053;-74
2023/07/23 06:47:26;;;;;;;3.80;3.55;;;17.70;99.90;;;18.10;95.11;100380.13;5048971;28;20056;-74
2023/07/23 06:49:56;;;;;;;4.43;4.13;;;17.80;99.90;;;18.17;94.93;100362.00;5049293;28;20055;-74
2023/07/23 06:52:24;;;;;;;4.23;4.03;;;17.80;99.90;;;18.18;94.68;100364.59;5053421;28;20049;-74
2023/07/23 06:54:53;;;;;;;3.55;3.35;;;17.90;99.90;;;18.19;94.34;100366.34;5053034;28;20136;-73
2023/07/23 06:57:21;;;;;;;4.05;3.85;;;17.90;99.90;;;18.21;93.85;100379.66;5053062;28;20135;-73
2023/07/23 06:59:49;;;;;;;4.63;4.38;;;17.90;99.90;;;18.16;93.58;100371.81;5053026;28;20048;-74
2023/07/23 07:02:18;;;;;;;3.65;3.45;;;17.90;99.90;;;18.21;93.62;100379.66;5052910;28;20098;-73
2023/07/23 07:04:46;;;;;;;3.53;3.33;;;17.90;99.90;;;18.22;93.47;100382.28;5052965;28;20048;-74
2023/07/23 07:07:16;;;;;;;3.42;3.25;;;17.90;99.90;;;18.24;93.22;100358.97;5051625;28;20103;-74
2023/07/23 07:09:44;;;;;;;5.30;4.20;;;17.90;99.90;;;18.31;93.32;100370.31;5052884;28;20618;-75
2023/07/23 07:12:13;;;;;;;8.43;4.15;;;18.00;99.90;;;18.30;93.04;100385.50;5049234;28;20366;-75
2023/07/23 07:14:41;;;;;;;4.28;3.92;;;18.00;99.90;;;18.41;92.93;100372.50;5047994;28;20053;-75
2023/07/23 07:17:09;;;;;;;4.28;4.00;;;18.00;99.90;;;18.48;92.55;100365.09;5052825;28;20095;-75
2023/07/23 07:19:38;;;;;;;3.22;3.10;;;18.10;99.90;;;18.52;92.70;100367.59;5049313;28;20081;-74
2023/07/23 07:22:06;;;;;;;5.72;3.97;;;18.20;99.90;;;18.46;92.61;100381.25;5052380;28;20128;-75
2023/07/23 07:24:36;;;;;;;4.35;4.05;;;18.20;99.90;;;18.55;92.52;100363.88;5052532;28;20061;-74
2023/07/23 07:27:09;;;;;;;4.15;3.85;;;18.20;99.90;;;18.51;92.47;100357.78;5052792;28;20393;-75
2023/07/23 07:29:41;;;;;;;4.20;3.90;;;18.20;99.90;;;18.55;92.25;100362.06;5052819;28;20055;-75
2023/07/23 07:32:10;;;;;;;3.40;3.13;;;18.20;99.90;;;18.50;91.93;100360.56;5055282;28;20063;-72
2023/07/23 07:34:40;;;;;;;3.33;3.15;;;18.20;99.90;;;18.54;92.20;100357.63;5059030;28;20465;-73
2023/07/23 07:37:08;;;;;;;3.35;3.15;;;18.20;99.90;;;18.54;92.59;100357.63;5058868;28;20230;-73
2023/07/23 07:39:38;;;;;;;4.43;4.13;;;18.20;99.90;;;18.63;92.94;100351.88;5058918;28;20401;-74
2023/07/23 07:42:08;;;;;;;4.30;4.10;;;18.30;99.90;;;18.56;92.56;100355.75;5058829;28;20057;-74
2023/07/23 07:44:36;;;;;;;3.50;3.30;;;18.30;99.90;;;18.57;92.75;100380.75;5059058;28;20124;-73
2023/07/23 07:47:05;;;;;;;10.38;4.65;;;18.30;99.90;;;18.54;93.00;100344.25;5058829;28;20053;-74
2023/07/23 07:49:34;;;;;;;5.03;4.68;;;18.20;99.90;;;18.63;93.38;100353.69;5059051;28;20045;-73
2023/07/23 07:52:02;;;;;;;4.22;3.97;;;18.30;99.90;;;18.68;93.16;100357.00;5054918;28;20056;-72
2023/07/23 07:54:30;;;;;;;3.38;3.17;;;18.40;99.90;;;18.63;93.40;100367.09;5058828;28;20401;-73
2023/07/23 07:57:02;;;;;;;3.85;3.65;;;18.30;99.90;;;18.61;93.42;100342.16;5059251;28;20132;-73
2023/07/23 07:59:31;;;;;;;3.38;3.28;;;18.30;99.90;;;18.67;93.77;100349.94;5059116;28;20041;-73
2023/07/23 08:02:01;;;;;;;6.63;3.83;;;18.30;99.90;;;18.65;93.87;100344.66;5058661;28;20398;-74
2023/07/23 08:04:30;;;;;;;4.10;3.75;;;18.30;99.90;;;18.67;93.84;100361.53;5059372;28;20048;-74
2023/07/23 08:07:00;;;;;;;3.53;3.33;;;18.40;99.90;;;18.65;94.07;100360.72;5059226;28;20138;-73
2023/07/23 08:09:29;;;;;;;4.10;3.80;;;18.30;99.90;;;18.67;94.25;100349.94;5058682;28;20049;-75
2023/07/23 08:12:00;;;;;;;13.15;3.80;;;18.40;99.90;;;18.68;94.52;100365.94;5055028;28;20076;-72
2023/07/23 08:14:30;;;;;;;3.05;2.95;;;18.40;99.90;;;18.70;94.76;100358.69;5057822;28;20053;-75
2023/07/23 08:17:00;;;;;;;4.95;3.92;;;18.40;99.90;;;18.68;94.83;100341.81;5058802;28;20049;-74
2023/07/23 08:19:28;;;;;;;3.45;3.25;;;18.40;99.90;;;18.70;94.99;100353.34;5058683;28;20033;-75
2023/07/23 08:21:57;;;;;;;3.80;3.50;;;18.40;99.90;;;18.67;95.02;100353.50;5058618;28;20555;-74
2023/07/23 08:24:27;;;;;;;3.20;3.03;;;18.40;99.90;;;18.72;95.27;100385.41;5058590;28;20064;-75
2023/07/23 08:27:00;;;;;;;3.40;3.20;;;18.40;99.90;;;18.75;95.21;100347.78;5057573;28;20505;-73
2023/07/23 08:29:31;;;;;;;3.90;3.70;;;18.40;99.90;;;18.78;95.40;100345.81;5055185;28;20075;-73
2023/07/23 08:31:59;;;;;;;3.60;3.40;;;18.40;99.90;;;18.82;95.33;100352.78;5059185;28;20041;-73
2023/07/23 08:34:29;;;;;;;3.88;3.67;;;18.50;99.90;;;18.71;95.50;100395.28;5058794;28;20045;-74
2023/07/23 08:36:58;;;;;;;5.10;4.80;;;18.40;99.90;;;18.71;95.98;100359.56;5057129;28;20056;-73
2023/07/23 08:39:27;;;;;;;3.58;3.38;;;18.40;99.90;;;18.77;96.14;100346.78;5058502;28;20055;-73
2023/07/23 08:42:55;;;;;;;3.75;3.55;;;18.40;99.90;;;18.76;96.12;100353.06;5057444;28;20133;-73
2023/07/23 08:45:51;;;;;;;4.15;3.85;;;18.40;99.90;;;18.85;96.06;100349.94;5021902;28;20057;-73
2023/07/23 08:48:22;;;;;;;3.17;3.08;;;18.60;99.90;;;18.87;96.28;100348.06;5055072;28;20041;-74
2023/07/23 08:50:51;;;;;;;3.70;3.50;;;18.50;99.90;;;18.78;96.45;100369.06;5051655;28;20037;-73
2023/07/23 08:53:20;;;;;;;3.30;3.20;;;18.50;99.90;;;18.86;96.53;100362.41;5055633;28;20402;-75
2023/07/23 08:55:48;;;;;;;9.65;3.53;;;18.50;99.90;;;18.81;96.78;100366.25;5068609;28;20132;-73
2023/07/23 08:58:20;;;;;;;3.42;3.15;;;18.50;99.90;;;18.88;96.78;100357.84;5055033;28;20083;-73
2023/07/23 09:00:48;;;;;;;3.67;3.47;;;18.50;99.90;;;18.90;96.74;100366.69;5054021;28;20136;-74
2023/07/23 09:03:21;;;;;;;3.83;3.63;;;18.60;99.90;;;18.96;97.31;100356.63;5053580;28;20045;-74
2023/07/23 09:05:49;;;;;;;3.75;3.55;;;18.60;99.90;;;18.91;98.25;100368.41;5055118;28;20391;-74
2023/07/23 09:08:21;;;;;;;14.77;4.55;;;18.60;99.90;;;18.90;99.36;100355.97;5051261;28;20041;-74
2023/07/23 09:10:49;;;;;;;4.10;3.90;;;18.50;99.90;;;18.88;100.00;100357.84;5054862;28;20378;-74
2023/07/23 09:13:19;;;;;;;3.50;3.40;;;18.50;99.90;;;18.80;100.00;100360.03;5054668;28;20106;-73
2023/07/23 09:15:55;;;;;;;3.30;3.20;;;18.50;99.90;;;18.73;100.00;100374.66;5054961;28;20051;-74
2023/07/23 09:18:25;;;;;;;4.20;3.90;;;18.40;99.90;;;18.82;100.00;100367.97;5054848;28;20452;-74
2023/07/23 09:20:54;;;;;;;4.85;3.58;;;18.40;99.90;;;18.72;100.00;100367.53;5049541;28;20056;-73
2023/07/23 09:23:26;;;;;;;3.58;3.47;;;18.40;99.90;;;18.79;100.00;100371.66;5051160;28;20056;-74
2023/07/23 09:25:54;;;;;;;3.25;3.15;;;18.50;99.90;;;18.87;100.00;100382.06;5054904;28;20060;-74
2023/07/23 09:28:24;;;;;;;4.15;3.90;;;18.50;99.90;;;18.78;100.00;100394.06;5054433;28;20083;-74
2023/07/23 09:30:54;;;;;;;4.63;4.30;;;18.50;99.90;;;18.70;100.00;100357.81;5054526;28;20070;-74
2023/07/23 09:33:28;;;;;;;3.75;3.55;;;18.40;99.90;;;18.79;100.00;100393.09;5054575;28;20057;-74
2023/07/23 09:36:00;;;;;;;3.65;3.53;;;18.40;99.90;;;18.84;100.00;100387.53;5050214;28;20418;-74
2023/07/23 09:38:29;;;;;;;3.17;3.08;;;18.50;99.90;;;18.79;100.00;100385.06;5066936;28;20087;-74
2023/07/23 09:40:57;;;;;;;3.80;3.45;;;18.50;99.90;;;18.85;100.00;100394.66;5054167;28;20035;-75
2023/07/23 09:43:28;;;;;;;4.28;3.88;;;18.50;99.90;;;18.75;100.00;100406.72;5054166;28;20049;-74
2023/07/23 09:45:57;;;;;;;3.58;3.38;;;18.50;99.90;;;18.72;100.00;100356.81;5054466;28;20059;-74
2023/07/23 09:48:27;;;;;;;3.83;3.63;;;18.50;99.90;;;18.87;100.00;100376.69;5054535;28;20090;-73
2023/07/23 09:50:58;;;;;;;;;;;18.60;99.90;;;18.85;100.00;100390.16;5054446;28;20033;-74
2023/07/23 09:53:30;;;;;;;3.78;3.58;;;18.50;99.90;;;18.69;100.00;100361.44;5048535;28;20417;-72
2023/07/23 09:56:00;;;;;;;3.08;2.97;;;18.50;99.90;;;18.90;100.00;100388.13;5054098;28;20494;-74
2023/07/23 09:58:33;;;;;;;4.72;4.32;;;18.50;99.90;;;18.94;100.00;100378.16;5053850;28;20045;-73
2023/07/23 10:01:05;;;;;;;5.95;5.13;;;18.60;99.90;;;18.90;100.00;100372.06;5052726;28;20052;-74
2023/07/23 10:03:35;;;;;;;4.05;3.80;;;18.60;99.90;;;19.07;100.00;100383.78;5053643;28;20044;-74
2023/07/23 10:06:04;;;;;;;3.67;3.47;;;18.70;99.90;;;19.15;100.00;100376.25;5052749;28;20049;-73
2023/07/23 10:08:35;;;;;;;3.63;3.45;;;18.80;99.90;;;19.12;100.00;100387.13;5049438;28;20383;-74
2023/07/23 10:11:04;;;;;;;4.22;3.95;;;18.80;99.90;;;19.20;100.00;100384.97;5053762;28;20150;-74
2023/07/23 10:13:34;;;;;;;3.92;3.72;;;18.80;99.90;;;19.21;100.00;100381.34;5053509;28;20060;-74
2023/07/23 10:16:06;;;;;;;3.93;3.73;;;18.90;99.90;;;19.30;100.00;100388.97;5053637;28;20044;-74
2023/07/23 10:18:38;;;;;;;3.42;3.33;;;19.00;99.90;;;18.77;100.00;100289.63;5053864;28;20372;-74
2023/07/23 10:21:08;;;;;;;3.72;3.53;;;19.10;99.90;;;19.39;100.00;100392.09;5060648;28;20095;-74